Terminal Aerodrome Forecast
Issued by NWS

Home | Current Version | Previous Version | Text Only | Print | Product List | Glossary On
Versions: 1 2 3 4 5 6 7 8 9 10 11 12 13 14 15 16 17 18 19 20 21 22 23 24 25 26
244
FTUS41 KOKX 060533
TAFSWF
TAF
KSWF 060533Z 0606/0712 05008KT P6SM OVC030
     FM060900 05008KT 3SM -RA BR SCT010 OVC015
     FM061300 07010G16KT 2SM RA BR OVC008
     FM070000 10008KT 1SM -DZ BR OVC004
      AMD NOT SKED=

USA.gov is the U.S. government's official web portal to all federal, state and local government web resources and services.